createdAt,value
2019-03-20T00:01:43.644Z,9.08
2019-03-20T00:04:12.742Z,11.22
2019-03-20T00:06:44.275Z,10.48
2019-03-20T00:09:15.758Z,13.43
2019-03-20T00:11:47.283Z,12.43
2019-03-20T00:14:18.804Z,16.10
2019-03-20T00:16:51.000Z,16.10
2019-03-20T00:19:22.721Z,52.88
2019-03-20T00:21:54.202Z,41.58
2019-03-20T00:24:25.563Z,25.27
2019-03-20T00:26:57.344Z,22.98
2019-03-20T00:29:28.898Z,22.65
2019-03-20T00:32:00.640Z,17.67
2019-03-20T00:34:33.288Z,13.95
2019-03-20T00:37:04.774Z,13.68
2019-03-20T00:39:36.331Z,12.47
2019-03-20T00:42:08.110Z,11.48
2019-03-20T00:44:39.813Z,11.45
2019-03-20T00:47:11.468Z,11.10
2019-03-20T00:49:43.034Z,10.58
2019-03-20T00:52:14.791Z,11.48
2019-03-20T00:54:46.495Z,9.28
2019-03-20T00:57:18.266Z,10.58
2019-03-20T00:59:49.941Z,9.15
2019-03-20T01:02:21.754Z,10.90
2019-03-20T01:04:53.583Z,11.57
2019-03-20T01:07:25.398Z,10.98
2019-03-20T01:09:56.925Z,10.60
2019-03-20T01:12:28.590Z,10.93
2019-03-20T01:15:00.039Z,11.12
2019-03-20T01:17:31.323Z,13.98
2019-03-20T01:20:02.967Z,14.65
2019-03-20T01:22:34.353Z,14.20
2019-03-20T01:25:06.669Z,13.43
2019-03-20T01:27:38.208Z,12.33
2019-03-20T01:30:12.572Z,12.55
2019-03-20T01:32:44.080Z,12.00
2019-03-20T01:35:23.575Z,10.35
2019-03-20T01:37:49.171Z,9.23
2019-03-20T01:40:20.769Z,11.40
2019-03-20T01:42:52.337Z,11.68
2019-03-20T01:45:24.010Z,13.45
2019-03-20T01:47:55.646Z,14.55
2019-03-20T01:50:27.321Z,12.73
2019-03-20T01:52:58.778Z,12.78
2019-03-20T01:55:30.559Z,10.50
2019-03-20T01:58:02.444Z,10.15
2019-03-20T02:00:34.462Z,13.60
2019-03-20T02:03:06.077Z,11.45
2019-03-20T02:05:38.690Z,10.10
2019-03-20T02:08:10.139Z,9.53
2019-03-20T02:10:41.793Z,7.87
2019-03-20T02:13:13.402Z,11.45
2019-03-20T02:15:44.887Z,10.72
2019-03-20T02:18:16.602Z,9.33
2019-03-20T02:20:49.744Z,10.00
2019-03-20T02:23:21.265Z,9.38
2019-03-20T02:25:52.904Z,11.38
2019-03-20T02:28:24.579Z,12.03
2019-03-20T02:30:56.203Z,12.15
2019-03-20T02:33:28.452Z,14.10
2019-03-20T02:36:00.437Z,12.45
2019-03-20T02:38:32.111Z,15.98
2019-03-20T02:41:03.816Z,16.00
2019-03-20T02:43:35.584Z,13.22
2019-03-20T02:46:07.344Z,14.43
2019-03-20T02:48:39.333Z,12.40
2019-03-20T02:51:10.832Z,13.78
2019-03-20T02:53:42.737Z,13.38
2019-03-20T02:56:14.436Z,11.50
2019-03-20T02:58:46.265Z,14.20
2019-03-20T03:01:18.096Z,13.40
2019-03-20T03:03:50.131Z,14.43
2019-03-20T03:06:21.979Z,13.10
2019-03-20T03:08:55.643Z,14.90
2019-03-20T03:11:26.988Z,13.25
2019-03-20T03:13:58.619Z,13.48
2019-03-20T03:16:30.256Z,13.15
2019-03-20T03:19:02.104Z,12.58
2019-03-20T03:21:33.813Z,14.28
2019-03-20T03:24:05.425Z,12.10
2019-03-20T03:26:39.029Z,14.07
2019-03-20T20:23:16.562Z,5.28
2019-03-20T20:25:48.274Z,5.05
2019-03-20T20:28:19.900Z,5.80
2019-03-20T20:30:51.796Z,5.20
2019-03-20T20:34:02.434Z,4.62
2019-03-20T20:36:34.742Z,4.65
2019-03-20T20:39:07.693Z,5.35
2019-03-20T20:41:39.824Z,5.10
2019-03-20T20:44:11.400Z,5.20
2019-03-20T20:46:43.068Z,8.08
2019-03-20T20:49:14.842Z,4.67
2019-03-20T20:51:46.504Z,5.12
2019-03-20T20:54:18.017Z,4.95
2019-03-20T20:56:49.603Z,5.40
2019-03-20T20:59:20.909Z,4.80
2019-03-20T21:01:52.360Z,4.80
2019-03-20T21:04:24.471Z,4.47
2019-03-20T21:06:55.945Z,3.92
2019-03-20T21:09:29.532Z,4.67
2019-03-20T21:12:01.790Z,5.17
2019-03-20T21:14:33.729Z,4.28
2019-03-20T21:17:09.077Z,4.25
2019-03-20T21:19:41.279Z,5.10
2019-03-20T21:23:01.310Z,4.75
2019-03-20T21:25:33.455Z,5.40
2019-03-20T21:28:41.528Z,5.53
2019-03-20T21:31:52.201Z,4.97
2019-03-20T21:34:59.751Z,6.05
2019-03-20T21:38:05.026Z,5.40
2019-03-20T21:40:45.812Z,5.72
2019-03-20T21:43:47.667Z,5.87
2019-03-20T21:46:47.214Z,5.60
2019-03-20T21:49:20.274Z,6.03
2019-03-20T21:51:54.002Z,5.83
2019-03-20T21:55:15.471Z,6.17
2019-03-20T21:58:00.905Z,6.97
2019-03-20T22:01:08.262Z,5.10
2019-03-20T22:03:40.442Z,5.25
2019-03-20T22:06:38.008Z,5.90
2019-03-20T22:09:50.475Z,5.17
2019-03-20T22:12:51.116Z,5.22
2019-03-20T22:15:37.580Z,5.87
2019-03-20T22:18:51.777Z,6.17
2019-03-20T22:21:41.688Z,6.03
2019-03-20T22:25:01.780Z,5.70
2019-03-20T22:27:57.831Z,6.30
2019-03-20T22:30:29.778Z,6.15
2019-03-20T22:33:37.804Z,6.40
2019-03-20T22:36:35.010Z,6.70
2019-03-20T22:39:44.387Z,5.60
2019-03-20T22:42:40.169Z,6.80
2019-03-20T22:45:52.536Z,5.20
2019-03-20T22:49:07.313Z,6.50
2019-03-20T22:52:00.116Z,5.58
2019-03-20T22:55:15.130Z,5.12
2019-03-20T22:58:27.549Z,5.55
2019-03-20T23:01:00.908Z,5.83
2019-03-20T23:03:44.166Z,5.90
2019-03-20T23:06:16.852Z,5.90
2019-03-20T23:08:48.667Z,7.87
2019-03-20T23:11:20.720Z,6.42
2019-03-20T23:13:53.343Z,6.17
2019-03-20T23:16:25.464Z,5.72
2019-03-20T23:18:57.554Z,5.70
2019-03-20T23:21:29.507Z,6.05
2019-03-20T23:24:01.578Z,5.97
2019-03-20T23:26:33.637Z,5.50
2019-03-20T23:29:05.896Z,5.87
2019-03-20T23:31:38.131Z,5.67
2019-03-20T23:34:10.237Z,6.15
2019-03-20T23:36:42.686Z,6.78
2019-03-20T23:39:14.931Z,6.37
2019-03-20T23:41:46.966Z,6.05
2019-03-20T23:44:19.367Z,6.60
2019-03-20T23:46:52.287Z,6.08
2019-03-20T23:49:24.753Z,5.80
2019-03-20T23:51:58.003Z,6.15
2019-03-20T23:54:34.166Z,6.17
2019-03-20T23:57:06.408Z,7.47
2019-03-20T23:59:38.627Z,7.22
